Time;durP1;ratioP1;P1;durP2;ratioP2;P2;SDS_P1;SDS_P2;PMS_P1;PMS_P2;Temp;Humidity;BMP_temperature;BMP_pressure;BME280_temperature;BME280_humidity;BME280_pressure;Samples;Min_cycle;Max_cycle;Signal;HPM_P1;HPM_P2
2022/01/23 00:01:44;;;;;;;50.93;27.07;;;5.40;97.00;;;;;;5074270;28;20221;-61
2022/01/23 00:04:11;;;;;;;53.70;26.70;;;5.40;95.40;;;;;;5074109;28;20225;-61
2022/01/23 00:06:39;;;;;;;51.37;26.50;;;5.30;94.30;;;;;;5073903;28;20205;-60
2022/01/23 00:09:05;;;;;;;57.53;27.80;;;5.30;93.20;;;;;;5074533;28;20204;-59
2022/01/23 00:11:37;;;;;;;56.97;28.63;;;5.30;91.10;;;;;;5074100;28;20233;-61
2022/01/23 00:19:32;;;;;;;54.57;27.53;;;5.20;91.90;;;;;;5074017;28;20234;-61
2022/01/23 00:22:02;;;;;;;60.27;27.93;;;5.20;92.80;;;;;;5074128;28;20228;-61
2022/01/23 00:32:41;;;;;;;51.47;27.23;;;5.20;92.40;;;;;;5073356;28;20284;-61
2022/01/23 00:35:08;;;;;;;54.23;26.37;;;5.20;92.00;;;;;;5073587;28;20212;-61
2022/01/23 00:37:36;;;;;;;58.17;28.03;;;5.10;91.70;;;;;;5073249;28;20201;-61
2022/01/23 00:40:03;;;;;;;50.80;25.60;;;5.10;93.50;;;;;;5073230;28;20213;-61
2022/01/23 00:42:30;;;;;;;52.97;27.10;;;5.10;93.60;;;;;;5073242;28;20683;-61
2022/01/23 00:45:09;;;;;;;55.60;27.47;;;5.10;94.40;;;;;;5073248;28;20558;-61
2022/01/23 00:47:35;;;;;;;50.53;26.37;;;5.20;95.70;;;;;;5073445;28;20204;-62
2022/01/23 00:50:02;;;;;;;59.63;27.90;;;5.20;96.00;;;;;;5072907;28;20259;-60
2022/01/23 00:52:29;;;;;;;50.63;26.10;;;5.20;95.00;;;;;;5073377;28;20670;-62
2022/01/23 00:54:59;;;;;;;55.10;26.83;;;5.30;94.20;;;;;;5073351;28;20208;-61
2022/01/23 00:57:26;;;;;;;49.20;24.10;;;5.30;94.10;;;;;;5073377;28;20236;-61
2022/01/23 00:59:52;;;;;;;51.90;24.93;;;5.20;93.20;;;;;;5073129;28;20201;-61
2022/01/23 01:02:19;;;;;;;52.80;27.10;;;5.10;93.10;;;;;;5073170;28;20361;-61
2022/01/23 01:04:46;;;;;;;52.80;25.67;;;5.20;94.60;;;;;;5072792;28;20217;-61
2022/01/23 01:07:12;;;;;;;47.67;24.63;;;5.20;95.20;;;;;;5073224;28;20208;-59
2022/01/23 01:09:40;;;;;;;48.63;24.47;;;5.20;94.70;;;;;;5073100;28;20263;-60
2022/01/23 01:12:17;;;;;;;50.90;25.30;;;5.20;94.10;;;;;;5072937;28;20777;-60
2022/01/23 01:15:00;;;;;;;46.13;23.63;;;5.10;93.70;;;;;;5073112;28;20200;-61
2022/01/23 01:17:39;;;;;;;43.87;22.67;;;5.00;93.90;;;;;;5072509;28;20212;-61
2022/01/23 01:31:10;;;;;;;41.10;21.17;;;5.00;99.90;;;;;;5072256;28;20278;-61
2022/01/23 01:33:47;;;;;;;45.80;22.87;;;5.00;99.90;;;;;;5072414;28;20205;-61
2022/01/23 01:36:25;;;;;;;42.17;21.77;;;5.10;99.90;;;;;;5072018;28;20216;-61
2022/01/23 01:38:53;;;;;;;40.47;20.93;;;5.00;99.90;;;;;;5072458;28;20205;-59
2022/01/23 01:41:20;;;;;;;42.87;21.33;;;5.00;99.90;;;;;;5072262;28;20232;-58
2022/01/23 01:43:50;;;;;;;45.53;22.27;;;5.10;99.90;;;;;;5072253;28;20319;-61
2022/01/23 01:46:17;;;;;;;42.30;20.83;;;5.10;99.90;;;;;;5072007;28;20209;-61
2022/01/23 01:48:43;;;;;;;38.17;20.23;;;5.20;99.90;;;;;;5071767;28;20258;-59
2022/01/23 01:51:14;;;;;;;40.87;21.53;;;5.10;99.90;;;;;;5072306;28;20225;-60
2022/01/23 01:53:46;;;;;;;42.83;22.03;;;5.00;99.90;;;;;;5072056;28;20600;-61
2022/01/23 01:56:13;;;;;;;41.10;22.57;;;5.10;99.90;;;;;;5071915;28;20201;-60
2022/01/23 01:59:10;;;;;;;44.10;22.67;;;5.00;99.90;;;;;;5071957;28;20215;-61
2022/01/23 02:09:50;;;;;;;42.00;22.17;;;5.10;99.90;;;;;;5071939;28;20585;-59
2022/01/23 02:12:51;;;;;;;38.47;21.10;;;5.20;99.90;;;;;;5072454;28;20225;-62
2022/01/23 02:15:39;;;;;;;45.87;21.00;;;5.20;99.90;;;;;;5071750;28;20671;-60
2022/01/23 02:18:20;;;;;;;43.20;20.77;;;5.10;99.90;;;;;;5071294;28;20208;-61
2022/01/23 02:23:56;;;;;;;43.00;21.50;;;5.00;99.90;;;;;;5071909;28;20339;-62
2022/01/23 02:51:32;;;;;;;55.27;23.53;;;5.00;99.90;;;;;;5071947;28;20274;-61
2022/01/23 02:56:47;;;;;;;55.80;23.73;;;4.90;99.90;;;;;;5071220;28;20208;-61
2022/01/23 02:59:21;;;;;;;49.70;23.80;;;5.00;99.90;;;;;;5071491;28;20211;-62
2022/01/23 03:02:01;;;;;;;51.43;24.53;;;5.00;99.90;;;;;;5071973;28;20231;-62
2022/01/23 03:04:28;;;;;;;51.57;23.63;;;5.10;99.90;;;;;;5071547;28;20227;-60
2022/01/23 03:07:10;;;;;;;56.63;26.07;;;5.10;99.90;;;;;;5071349;28;20209;-60
2022/01/23 03:09:54;;;;;;;52.97;25.17;;;5.10;99.90;;;;;;5074353;28;20216;-61
2022/01/23 03:13:20;;;;;;;54.30;25.13;;;5.10;99.90;;;;;;5073543;28;20232;-60
2022/01/23 03:15:25;;;;;;;61.27;26.77;;;5.10;99.90;;;;;;5075344;28;20204;-60
2022/01/23 03:26:19;;;;;;;55.97;26.50;;;4.90;99.90;;;;;;5074806;28;20234;-61
2022/01/23 03:29:18;;;;;;;60.23;26.37;;;5.00;99.90;;;;;;5074648;28;20212;-60
2022/01/23 03:31:58;;;;;;;50.97;25.23;;;5.10;99.90;;;;;;5074895;28;20229;-61
2022/01/23 03:34:27;;;;;;;51.97;26.03;;;5.10;99.90;;;;;;5074494;28;20209;-61
2022/01/23 03:36:54;;;;;;;56.07;25.50;;;5.20;99.90;;;;;;5074247;28;20661;-59
2022/01/23 03:39:21;;;;;;;57.97;25.63;;;5.20;99.90;;;;;;5074836;28;20212;-61
2022/01/23 03:41:49;;;;;;;49.80;24.83;;;5.20;99.90;;;;;;5074398;28;20271;-61
2022/01/23 03:44:17;;;;;;;50.63;25.67;;;5.20;99.90;;;;;;5074561;28;20220;-60
2022/01/23 03:47:00;;;;;;;54.60;25.63;;;5.20;99.90;;;;;;5074220;28;20208;-61
2022/01/23 03:49:32;;;;;;;53.03;24.77;;;5.10;99.90;;;;;;5074393;28;20275;-61
2022/01/23 03:52:00;;;;;;;49.17;23.83;;;5.10;99.90;;;;;;5074494;28;20256;-61
2022/01/23 03:54:28;;;;;;;52.53;25.03;;;5.10;99.90;;;;;;5074689;28;20205;-61
2022/01/23 03:56:57;;;;;;;52.23;26.57;;;5.10;99.90;;;;;;5074050;28;20205;-61
2022/01/23 03:59:25;;;;;;;53.63;25.00;;;5.20;99.90;;;;;;5074347;28;20232;-60
2022/01/23 04:01:51;;;;;;;54.60;26.07;;;5.20;99.90;;;;;;5074462;28;20232;-61
2022/01/23 04:04:36;;;;;;;55.57;26.23;;;5.20;99.90;;;;;;5074047;28;20225;-61
2022/01/23 04:07:04;;;;;;;51.50;23.93;;;5.20;99.90;;;;;;5073878;28;20205;-61
2022/01/23 04:09:30;;;;;;;51.00;25.30;;;5.10;99.90;;;;;;5074075;28;20223;-61
2022/01/23 04:11:59;;;;;;;55.20;25.73;;;5.10;99.90;;;;;;5073903;28;20228;-62
2022/01/23 04:14:28;;;;;;;48.90;24.97;;;5.10;99.90;;;;;;5073875;28;20200;-61
2022/01/23 04:19:57;;;;;;;53.73;24.77;;;5.00;99.90;;;;;;5048029;28;20195;-60
2022/01/23 05:00:53;;;;;;;54.03;24.77;;;5.20;99.90;;;;;;5073007;28;20333;-61
2022/01/23 05:06:22;;;;;;;48.47;22.77;;;5.20;98.70;;;;;;5073648;28;20224;-62
2022/01/23 05:08:48;;;;;;;46.10;24.63;;;5.20;97.90;;;;;;5074368;28;20682;-61
2022/01/23 05:11:15;;;;;;;44.47;25.17;;;5.20;97.50;;;;;;5073070;28;20225;-62
2022/01/23 05:13:42;;;;;;;46.23;24.23;;;5.10;97.10;;;;;;5073147;28;20552;-61
2022/01/23 05:16:11;;;;;;;51.87;24.70;;;5.10;96.60;;;;;;5072780;28;20204;-61
2022/01/23 05:18:39;;;;;;;49.70;25.10;;;5.10;96.60;;;;;;5072796;28;20640;-62
2022/01/23 05:21:09;;;;;;;50.17;25.30;;;5.10;97.50;;;;;;5072485;28;20236;-62
2022/01/23 05:23:36;;;;;;;51.43;25.03;;;5.10;98.30;;;;;;5072744;28;20632;-61
2022/01/23 05:26:03;;;;;;;53.30;24.23;;;5.10;98.50;;;;;;5072445;28;20235;-61
2022/01/23 05:28:30;;;;;;;46.93;24.03;;;5.10;98.50;;;;;;5072522;28;20205;-62
2022/01/23 05:30:56;;;;;;;50.07;23.33;;;5.10;99.00;;;;;;5073171;28;20228;-62
2022/01/23 05:33:24;;;;;;;46.90;24.17;;;5.10;99.20;;;;;;5072514;28;20201;-61
2022/01/23 05:35:51;;;;;;;47.60;23.53;;;5.10;99.10;;;;;;5072345;28;20220;-61
2022/01/23 05:38:18;;;;;;;46.70;23.87;;;5.10;99.30;;;;;;5071714;28;20216;-62
2022/01/23 05:40:44;;;;;;;55.87;25.37;;;5.00;99.80;;;;;;5072775;28;20225;-62
2022/01/23 05:43:11;;;;;;;58.13;26.40;;;5.00;99.90;;;;;;5072691;28;20209;-59
2022/01/23 05:45:41;;;;;;;46.77;24.97;;;5.10;99.90;;;;;;5072062;28;20270;-61
2022/01/23 05:48:09;;;;;;;54.67;24.93;;;5.10;99.90;;;;;;5071762;28;20645;-59
2022/01/23 05:50:37;;;;;;;54.23;24.53;;;5.10;99.90;;;;;;5072836;28;20663;-61
2022/01/23 05:53:04;;;;;;;50.80;25.60;;;5.20;99.90;;;;;;5072295;28;20554;-60
2022/01/23 05:55:30;;;;;;;54.17;25.40;;;5.20;99.90;;;;;;5071649;28;20295;-61
2022/01/23 05:57:57;;;;;;;51.60;25.67;;;5.30;99.90;;;;;;5071793;28;20205;-61
2022/01/23 06:00:24;;;;;;;52.80;25.40;;;5.30;99.90;;;;;;5071870;28;20221;-62
2022/01/23 06:02:51;;;;;;;56.50;26.20;;;5.30;99.90;;;;;;5071860;28;20307;-61
2022/01/23 06:05:18;;;;;;;48.90;25.47;;;5.30;99.90;;;;;;5072117;28;20228;-59
2022/01/23 06:07:48;;;;;;;52.90;24.87;;;5.30;99.90;;;;;;5072274;28;20212;-61
2022/01/23 06:10:21;;;;;;;52.90;24.13;;;5.30;99.90;;;;;;5071891;28;20235;-60
2022/01/23 06:12:48;;;;;;;56.27;25.80;;;5.30;99.90;;;;;;5072079;28;20209;-61
2022/01/23 06:15:15;;;;;;;50.77;24.53;;;5.30;99.90;;;;;;5071693;28;20619;-62
2022/01/23 06:17:42;;;;;;;49.90;24.67;;;5.30;99.90;;;;;;5072062;28;20209;-62
2022/01/23 06:20:10;;;;;;;50.13;24.70;;;5.20;99.90;;;;;;5072034;28;20672;-62
2022/01/23 06:22:37;;;;;;;54.03;24.07;;;5.20;99.90;;;;;;5072140;28;20246;-61
2022/01/23 06:25:09;;;;;;;54.87;25.97;;;5.20;99.90;;;;;;5073189;28;20221;-60
2022/01/23 06:27:36;;;;;;;55.60;24.23;;;5.30;99.90;;;;;;5075136;28;20304;-61
2022/01/23 06:30:03;;;;;;;50.83;24.67;;;5.20;99.30;;;;;;5082373;28;20234;-62
2022/01/23 06:32:30;;;;;;;57.17;25.57;;;5.20;99.40;;;;;;5080280;28;20205;-61
2022/01/23 06:34:57;;;;;;;60.47;25.77;;;5.20;99.90;;;;;;5072364;28;20201;-59
2022/01/23 06:37:23;;;;;;;65.00;27.83;;;5.20;99.90;;;;;;5070981;28;20216;-60
2022/01/23 06:39:50;;;;;;;57.77;27.03;;;5.30;99.20;;;;;;5071605;28;20205;-59
2022/01/23 06:42:18;;;;;;;58.97;26.97;;;5.20;97.80;;;;;;5071257;28;20285;-61
2022/01/23 06:44:45;;;;;;;63.53;26.27;;;5.20;97.20;;;;;;5071532;28;20263;-61
2022/01/23 06:47:12;;;;;;;60.63;27.27;;;5.10;96.80;;;;;;5071050;28;20266;-61
2022/01/23 06:49:39;;;;;;;60.03;26.83;;;5.10;96.80;;;;;;5071190;28;20342;-60
2022/01/23 06:52:06;;;;;;;60.87;26.33;;;5.00;97.40;;;;;;5071544;28;20228;-61
2022/01/23 06:54:32;;;;;;;65.13;27.17;;;5.10;98.90;;;;;;5070852;28;20797;-61
2022/01/23 06:56:59;;;;;;;67.03;27.50;;;5.10;99.70;;;;;;5071046;28;20214;-61
2022/01/23 06:59:27;;;;;;;61.97;26.07;;;5.20;99.90;;;;;;5071078;28;20211;-61
2022/01/23 07:01:54;;;;;;;63.73;26.33;;;5.20;99.90;;;;;;5071264;28;20286;-61
2022/01/23 07:04:21;;;;;;;68.10;28.47;;;5.10;99.90;;;;;;5071178;28;20265;-60
2022/01/23 07:06:48;;;;;;;59.07;27.73;;;5.10;99.90;;;;;;5071401;28;20267;-61
2022/01/23 07:09:14;;;;;;;62.43;28.10;;;5.10;99.90;;;;;;5071349;28;20208;-60
2022/01/23 07:11:41;;;;;;;60.77;27.20;;;5.10;99.90;;;;;;5071059;28;20233;-60
2022/01/23 07:14:08;;;;;;;60.97;25.70;;;5.20;99.90;;;;;;5071379;28;20258;-61
2022/01/23 07:16:36;;;;;;;62.00;26.93;;;5.10;99.90;;;;;;5071182;28;20200;-60
2022/01/23 07:19:03;;;;;;;64.90;27.20;;;5.20;99.90;;;;;;5071200;28;20213;-60
2022/01/23 07:21:30;;;;;;;58.03;25.27;;;5.10;99.90;;;;;;5070931;28;20227;-60
2022/01/23 07:23:56;;;;;;;64.40;27.90;;;5.00;99.90;;;;;;5070921;28;20274;-61
2022/01/23 07:26:26;;;;;;;63.30;25.50;;;5.00;99.90;;;;;;5070740;28;20233;-61
2022/01/23 07:28:55;;;;;;;67.37;26.87;;;5.10;99.90;;;;;;5070996;28;20251;-61
2022/01/23 07:31:42;;;;;;;61.70;26.57;;;5.10;99.90;;;;;;5070848;28;20233;-61
2022/01/23 07:34:13;;;;;;;71.37;28.20;;;5.10;99.90;;;;;;5071093;28;20208;-60
2022/01/23 07:36:40;;;;;;;63.63;25.53;;;5.10;99.90;;;;;;5070488;28;20212;-59
2022/01/23 07:39:07;;;;;;;67.57;27.07;;;5.20;99.90;;;;;;5071159;28;20604;-62
2022/01/23 07:41:34;;;;;;;70.43;28.13;;;5.10;99.90;;;;;;5070966;28;20232;-60
2022/01/23 07:44:01;;;;;;;66.47;27.40;;;5.10;99.90;;;;;;5071261;28;20251;-62
2022/01/23 07:46:28;;;;;;;69.27;29.13;;;5.20;99.90;;;;;;5070715;28;20283;-63
2022/01/23 07:48:55;;;;;;;69.37;27.70;;;5.20;99.90;;;;;;5071143;28;20201;-60
2022/01/23 07:51:23;;;;;;;74.63;28.40;;;5.30;99.90;;;;;;5071004;28;20703;-60
2022/01/23 07:53:50;;;;;;;65.90;27.93;;;5.30;99.90;;;;;;5071151;28;20208;-61
2022/01/23 07:56:17;;;;;;;67.37;28.53;;;5.30;99.90;;;;;;5071216;28;20255;-62
2022/01/23 07:58:44;;;;;;;68.43;28.20;;;5.30;99.90;;;;;;5071070;28;20205;-62
2022/01/23 08:01:11;;;;;;;71.00;28.27;;;5.30;99.90;;;;;;5072959;28;20629;-58
2022/01/23 08:03:37;;;;;;;72.67;29.20;;;5.30;99.90;;;;;;5074027;28;20683;-60
2022/01/23 08:06:05;;;;;;;71.50;29.07;;;5.30;99.90;;;;;;5074646;28;20278;-59
2022/01/23 08:08:33;;;;;;;77.03;29.47;;;5.30;99.90;;;;;;5074727;28;20209;-60
2022/01/23 08:11:00;;;;;;;72.27;28.13;;;5.30;99.90;;;;;;5074520;28;20290;-59
2022/01/23 08:13:27;;;;;;;70.33;28.10;;;5.30;99.90;;;;;;5074307;28;20282;-59
2022/01/23 08:15:53;;;;;;;70.97;28.00;;;5.40;99.90;;;;;;5074202;28;20589;-60
2022/01/23 08:18:20;;;;;;;74.33;29.27;;;5.30;99.90;;;;;;5073987;28;20294;-60
2022/01/23 08:20:47;;;;;;;72.73;30.00;;;5.30;99.90;;;;;;5074329;28;20316;-60
2022/01/23 08:23:13;;;;;;;76.13;29.50;;;5.30;99.90;;;;;;5074192;28;20208;-60
2022/01/23 08:25:42;;;;;;;69.77;28.40;;;5.30;99.90;;;;;;5073652;28;20316;-60
2022/01/23 08:28:09;;;;;;;70.93;27.87;;;5.30;99.90;;;;;;5073963;28;20208;-58
2022/01/23 08:30:36;;;;;;;81.37;29.43;;;5.20;99.90;;;;;;5073681;28;20225;-60
2022/01/23 08:33:02;;;;;;;87.63;30.77;;;5.30;99.90;;;;;;5074201;28;20217;-60
2022/01/23 08:35:29;;;;;;;73.97;29.77;;;5.40;99.90;;;;;;5073533;28;20694;-60
2022/01/23 08:37:57;;;;;;;80.47;28.97;;;5.40;99.90;;;;;;5073756;28;20213;-59
2022/01/23 08:40:44;;;;;;;90.27;32.30;;;5.40;99.90;;;;;;5073299;28;20236;-60
2022/01/23 08:43:12;;;;;;;84.43;32.47;;;5.50;99.90;;;;;;5073366;28;20341;-58
2022/01/23 08:45:39;;;;;;;75.33;29.93;;;5.50;99.90;;;;;;5073536;28;20574;-61
2022/01/23 08:48:07;;;;;;;76.40;28.63;;;5.60;99.90;;;;;;5075892;28;20208;-60
2022/01/23 08:50:33;;;;;;;76.57;30.17;;;5.60;99.90;;;;;;5074899;28;20233;-60
2022/01/23 08:53:00;;;;;;;73.93;29.97;;;5.60;99.90;;;;;;5076221;28;20217;-60
2022/01/23 08:55:27;;;;;;;76.20;30.53;;;5.70;99.90;;;;;;5074084;28;20197;-60
2022/01/23 08:57:54;;;;;;;80.73;30.63;;;5.70;99.90;;;;;;5073142;28;20205;-60
2022/01/23 09:00:22;;;;;;;74.13;30.33;;;5.60;99.90;;;;;;5073801;28;20635;-60
2022/01/23 09:02:49;;;;;;;71.00;29.27;;;5.70;99.90;;;;;;5075994;28;20205;-60
2022/01/23 09:05:15;;;;;;;72.33;28.77;;;5.70;99.90;;;;;;5077047;28;20205;-60
2022/01/23 09:07:42;;;;;;;78.57;30.53;;;5.70;99.90;;;;;;5074397;28;20209;-64
2022/01/23 09:10:10;;;;;;;74.90;28.93;;;5.80;99.90;;;;;;5073187;28;20201;-60
2022/01/23 09:12:56;;;;;;;71.20;28.23;;;5.70;99.90;;;;;;5073282;28;20212;-60
2022/01/23 09:15:24;;;;;;;67.73;29.27;;;5.70;99.90;;;;;;5073560;28;20219;-61
2022/01/23 09:17:50;;;;;;;71.60;28.00;;;5.60;99.90;;;;;;5073787;28;20212;-60
2022/01/23 09:20:17;;;;;;;76.67;28.80;;;5.40;99.90;;;;;;5073855;28;20334;-60
2022/01/23 09:22:44;;;;;;;84.07;29.43;;;5.30;99.90;;;;;;5073059;28;20216;-59
2022/01/23 09:25:10;;;;;;;81.03;30.10;;;5.40;99.90;;;;;;5073204;28;20212;-60
2022/01/23 09:27:39;;;;;;;78.97;28.70;;;5.50;99.90;;;;;;5072950;28;20209;-60
2022/01/23 09:30:16;;;;;;;83.23;30.00;;;5.60;99.90;;;;;;5072801;28;20205;-60
2022/01/23 09:32:45;;;;;;;83.27;30.33;;;5.60;99.90;;;;;;5072780;28;20213;-60
2022/01/23 09:35:12;;;;;;;86.20;29.30;;;5.50;99.90;;;;;;5072727;28;20207;-60
2022/01/23 09:37:39;;;;;;;91.10;31.70;;;5.50;99.90;;;;;;5072351;28;20219;-60
2022/01/23 09:40:07;;;;;;;84.47;29.63;;;5.60;99.90;;;;;;5072484;28;20212;-60
2022/01/23 09:42:36;;;;;;;85.90;31.47;;;5.50;99.90;;;;;;5072874;28;20209;-60
2022/01/23 09:45:09;;;;;;;86.83;30.13;;;5.50;99.90;;;;;;5073120;28;20208;-60
2022/01/23 09:47:37;;;;;;;89.77;31.63;;;5.60;99.90;;;;;;5067466;28;20842;-60
2022/01/23 09:50:07;;;;;;;81.67;29.07;;;5.70;99.90;;;;;;5066648;28;20205;-60
2022/01/23 09:52:35;;;;;;;73.70;27.53;;;5.80;99.90;;;;;;5078311;28;20624;-63
2022/01/23 09:55:08;;;;;;;74.70;27.00;;;5.90;99.90;;;;;;5087015;28;20205;-63
2022/01/23 09:57:37;;;;;;;64.67;25.13;;;5.90;99.90;;;;;;5093122;28;20208;-64
2022/01/23 10:00:08;;;;;;;74.87;27.90;;;5.90;99.90;;;;;;5073460;28;20205;-64
2022/01/23 10:02:35;;;;;;;67.53;28.30;;;6.00;99.90;;;;;;5072390;28;20190;-64
2022/01/23 10:05:03;;;;;;;69.47;26.17;;;6.00;99.90;;;;;;5072960;28;20204;-63
2022/01/23 10:07:31;;;;;;;67.57;26.43;;;6.10;99.90;;;;;;5072291;28;20714;-63
2022/01/23 10:10:09;;;;;;;58.07;25.00;;;6.20;99.90;;;;;;5072604;28;20205;-58
2022/01/23 10:12:39;;;;;;;60.53;24.87;;;6.20;99.90;;;;;;5072498;28;20208;-61
2022/01/23 10:15:07;;;;;;;61.17;25.53;;;6.10;98.60;;;;;;5072145;28;20220;-63
2022/01/23 10:17:34;;;;;;;58.03;25.13;;;6.10;95.30;;;;;;5071469;28;20218;-64
2022/01/23 10:20:01;;;;;;;52.47;23.40;;;6.10;94.10;;;;;;5072111;28;20212;-64
2022/01/23 10:22:32;;;;;;;58.03;24.13;;;6.10;91.40;;;;;;5072816;28;20238;-63
2022/01/23 10:25:06;;;;;;;51.60;23.10;;;6.10;81.90;;;;;;5071614;28;20243;-63
2022/01/23 10:27:51;;;;;;;48.73;22.07;;;6.10;74.50;;;;;;5071160;28;20336;-62
2022/01/23 10:30:19;;;;;;;51.77;23.20;;;6.10;69.00;;;;;;5070976;28;20201;-62
2022/01/23 10:32:57;;;;;;;64.60;23.57;;;6.00;65.10;;;;;;5071493;28;20237;-62
2022/01/23 10:35:25;;;;;;;54.23;24.13;;;6.00;60.10;;;;;;5071068;28;20259;-62
2022/01/23 10:37:54;;;;;;;54.00;22.83;;;6.10;63.90;;;;;;5071180;28;20613;-62
2022/01/23 10:40:29;;;;;;;52.33;23.13;;;6.10;62.50;;;;;;5071084;28;20743;-61
2022/01/23 10:46:37;;;;;;;51.57;22.13;;;6.20;63.80;;;;;;5071878;28;20238;-62
2022/01/23 10:48:42;;;;;;;52.37;22.00;;;6.30;58.70;;;;;;5071335;28;20203;-63
2022/01/23 10:51:27;;;;;;;48.20;22.60;;;6.20;56.90;;;;;;5071000;28;20233;-65
2022/01/23 10:54:00;;;;;;;53.27;22.93;;;6.20;53.10;;;;;;5071157;28;20209;-60
2022/01/23 10:56:28;;;;;;;50.70;23.20;;;6.20;49.70;;;;;;5071037;28;20205;-63
2022/01/23 10:59:00;;;;;;;51.47;22.23;;;6.30;53.60;;;;;;5071912;28;20193;-60
2022/01/23 11:01:31;;;;;;;52.57;21.23;;;6.40;49.40;;;;;;5071381;28;20283;-59
2022/01/23 11:04:11;;;;;;;45.87;21.67;;;6.40;44.20;;;;;;5071596;28;20560;-61
2022/01/23 11:06:58;;;;;;;43.53;21.13;;;6.50;43.80;;;;;;5071292;28;20326;-60
2022/01/23 11:09:29;;;;;;;44.83;20.87;;;6.60;40.10;;;;;;5071278;28;20206;-62
2022/01/23 11:12:01;;;;;;;42.53;20.33;;;6.60;16.00;;;;;;5071942;28;20229;-64
2022/01/23 11:17:23;;;;;;;43.00;20.70;;;6.50;8.30;;;;;;5071301;28;20196;-66
2022/01/23 11:19:52;;;;;;;45.90;22.10;;;6.50;5.30;;;;;;5071237;28;20205;-65
2022/01/23 11:22:20;;;;;;;45.50;21.77;;;6.60;7.60;;;;;;5071186;28;20217;-64
2022/01/23 11:24:50;;;;;;;45.83;23.10;;;6.50;3.50;;;;;;5071317;28;20213;-64
2022/01/23 11:27:19;;;;;;;41.67;20.73;;;6.60;6.00;;;;;;5071430;28;20221;-64
2022/01/23 11:29:58;;;;;;;47.17;22.60;;;6.50;1.00;;;;;;5071181;28;20201;-64
2022/01/23 11:32:27;;;;;;;43.77;21.30;;;6.50;1.00;;;;;;5071607;28;20206;-64
2022/01/23 11:35:03;;;;;;;43.93;21.03;;;6.60;1.00;;;;;;5070911;28;20206;-65
2022/01/23 11:37:31;;;;;;;45.40;22.23;;;6.80;1.00;;;;;;5075115;28;20216;-64
2022/01/23 11:40:04;;;;;;;46.90;21.40;;;6.90;1.00;;;;;;5075023;28;20210;-64
2022/01/23 11:51:07;;;;;;;39.97;20.43;;;7.00;1.00;;;;;;5074676;28;20591;-66
2022/01/23 11:53:50;;;;;;;39.50;19.40;;;7.10;1.00;;;;;;5074835;28;20729;-63
2022/01/23 11:56:37;;;;;;;37.27;18.33;;;7.20;1.00;;;;;;5074812;28;20682;-62
2022/01/23 11:59:18;;;;;;;35.40;18.27;;;7.20;1.00;;;;;;5074589;28;20303;-63
2022/01/23 12:01:46;;;;;;;30.37;16.97;;;7.30;1.00;;;;;;5074986;28;20231;-63
2022/01/23 12:04:19;;;;;;;34.30;16.93;;;7.40;1.00;;;;;;5074665;28;20213;-62
2022/01/23 12:07:20;;;;;;;30.37;16.37;;;7.40;1.00;;;;;;5074388;28;20641;-63
2022/01/23 12:10:14;;;;;;;23.87;13.47;;;7.40;1.00;;;;;;5074652;28;20223;-62
2022/01/23 12:12:45;;;;;;;23.33;12.57;;;7.40;1.00;;;;;;5074812;28;20256;-64
2022/01/23 12:18:13;;;;;;;27.37;15.20;;;7.20;1.00;;;;;;5078546;28;20280;-63
2022/01/23 12:20:40;;;;;;;30.27;16.40;;;7.30;1.00;;;;;;5081210;28;20224;-63
2022/01/23 12:23:07;;;;;;;29.97;15.60;;;7.30;1.00;;;;;;5074761;28;20218;-64
2022/01/23 12:25:41;;;;;;;31.73;15.37;;;7.50;1.00;;;;;;5074540;28;20212;-63
2022/01/23 12:28:12;;;;;;;31.63;16.67;;;7.40;1.00;;;;;;5075872;28;20229;-63
2022/01/23 12:30:40;;;;;;;33.30;15.00;;;7.40;1.00;;;;;;5078685;28;20227;-64
2022/01/23 12:33:16;;;;;;;30.63;15.13;;;7.40;1.00;;;;;;5078837;28;20577;-63
2022/01/23 12:35:46;;;;;;;27.23;13.53;;;7.50;1.00;;;;;;5074119;28;20281;-63
2022/01/23 12:38:13;;;;;;;25.03;13.60;;;7.50;1.00;;;;;;5074013;28;20261;-63
2022/01/23 12:40:45;;;;;;;27.47;14.37;;;7.50;1.00;;;;;;5073701;28;20233;-63
2022/01/23 12:43:15;;;;;;;29.93;14.80;;;7.50;1.00;;;;;;5074230;28;20212;-63
2022/01/23 12:45:53;;;;;;;27.80;12.97;;;7.40;1.00;;;;;;5073859;28;20298;-64
2022/01/23 12:48:44;;;;;;;23.70;11.73;;;7.50;1.00;;;;;;5073816;28;20257;-63
2022/01/23 12:51:41;;;;;;;22.03;11.63;;;7.50;1.00;;;;;;5073587;28;20686;-64
2022/01/23 12:54:20;;;;;;;18.70;10.57;;;7.30;1.00;;;;;;5073870;28;20209;-63
2022/01/23 12:56:49;;;;;;;20.90;10.40;;;7.20;99.90;;;;;;5073326;28;20206;-63
2022/01/23 12:59:26;;;;;;;23.87;11.87;;;7.20;99.90;;;;;;5073773;28;20250;-62
2022/01/23 13:01:59;;;;;;;27.20;12.73;;;7.20;99.90;;;;;;5073621;28;20221;-63
2022/01/23 13:04:32;;;;;;;28.13;12.67;;;7.30;99.90;;;;;;5073846;28;20205;-63
2022/01/23 13:07:07;;;;;;;21.57;12.60;;;7.30;1.00;;;;;;5073253;28;20239;-62
2022/01/23 13:09:40;;;;;;;27.13;13.03;;;7.40;1.00;;;;;;5073746;28;20562;-63
2022/01/23 13:12:12;;;;;;;23.30;12.77;;;7.40;1.00;;;;;;5073324;28;20229;-61
2022/01/23 13:14:56;;;;;;;19.37;11.60;;;7.20;99.90;;;;;;5073294;28;20300;-63
2022/01/23 13:17:43;;;;;;;25.17;13.33;;;7.20;99.90;;;;;;5073283;28;20563;-62
2022/01/23 13:31:48;;;;;;;22.43;13.00;;;7.30;1.00;;;;;;5073696;28;20249;-64
2022/01/23 13:34:27;;;;;;;24.57;13.70;;;7.30;1.00;;;;;;5073306;28;20237;-62
2022/01/23 13:36:55;;;;;;;27.00;13.37;;;7.40;99.90;;;;;;5072599;28;20218;-62
2022/01/23 13:39:23;;;;;;;24.57;13.07;;;7.30;1.00;;;;;;5072683;28;20676;-63
2022/01/23 13:42:01;;;;;;;25.57;13.03;;;7.30;99.90;;;;;;5060263;28;20284;-63
2022/01/23 13:53:24;;;;;;;18.47;9.90;;;7.20;99.90;;;;;;5072714;28;20288;-64
2022/01/23 13:58:38;;;;;;;16.07;8.37;;;7.20;99.90;;;;;;5071833;28;20214;-63
2022/01/23 14:01:29;;;;;;;14.57;8.10;;;7.20;99.90;;;;;;5071898;28;20718;-67
2022/01/23 14:03:57;;;;;;;12.13;7.37;;;7.20;99.90;;;;;;5072305;28;20213;-67
2022/01/23 14:06:25;;;;;;;13.03;7.87;;;7.10;1.00;;;;;;5072975;28;20217;-66
2022/01/23 14:09:05;;;;;;;12.57;6.67;;;6.90;99.90;;;;;;5072697;28;20240;-70
2022/01/23 14:11:31;;;;;;;7.33;5.13;;;6.90;1.00;;;;;;5072420;28;20233;-68
2022/01/23 14:14:14;;;;;;;7.83;4.93;;;7.00;99.90;;;;;;5072379;28;20209;-62
2022/01/23 14:16:41;;;;;;;8.23;5.70;;;7.00;99.90;;;;;;5071927;28;20189;-62
2022/01/23 14:19:21;;;;;;;7.17;5.10;;;6.90;99.90;;;;;;5072176;28;20202;-63
2022/01/23 14:21:49;;;;;;;9.00;5.70;;;6.80;99.90;;;;;;5071880;28;20640;-63
2022/01/23 14:24:27;;;;;;;8.83;6.03;;;6.80;99.90;;;;;;5071961;28;20626;-63
2022/01/23 14:27:03;;;;;;;6.97;4.80;;;6.90;99.90;;;;;;5071667;28;20225;-60
2022/01/23 14:29:32;;;;;;;9.37;5.63;;;7.00;99.90;;;;;;5072041;28;20203;-63
2022/01/23 14:32:18;;;;;;;10.23;5.67;;;7.10;1.00;;;;;;5071722;28;20277;-66
2022/01/23 14:34:47;;;;;;;8.27;5.53;;;7.30;88.20;;;;;;5072056;28;20206;-68
2022/01/23 14:37:14;;;;;;;10.07;5.80;;;7.50;99.90;;;;;;5072016;28;20225;-66
2022/01/23 14:39:41;;;;;;;13.47;6.00;;;7.60;1.00;;;;;;5072026;28;20207;-67
2022/01/23 14:42:13;;;;;;;8.87;6.33;;;8.00;99.90;;;;;;5071417;28;20710;-67
2022/01/23 14:44:40;;;;;;;11.90;6.57;;;8.20;1.00;;;;;;5071778;28;20213;-63
2022/01/23 14:47:08;;;;;;;8.80;5.40;;;8.40;1.00;;;;;;5071386;28;20228;-66
2022/01/23 14:49:37;;;;;;;15.17;6.37;;;8.70;99.90;;;;;;5071667;28;20220;-65
2022/01/23 14:52:10;;;;;;;9.07;5.83;;;8.90;99.90;;;;;;5070844;28;20655;-65
2022/01/23 14:54:38;;;;;;;9.47;4.70;;;9.00;1.00;;;;;;5071796;28;20212;-65
2022/01/23 14:57:07;;;;;;;7.53;4.40;;;9.10;1.00;;;;;;5071036;28;20677;-64
2022/01/23 14:59:36;;;;;;;8.30;4.47;;;9.30;9.70;;;;;;5071640;28;20216;-66
2022/01/23 15:02:05;;;;;;;9.53;5.10;;;9.30;99.90;;;;;;5071078;28;20308;-66
2022/01/23 15:04:40;;;;;;;7.40;5.30;;;9.30;99.90;;;;;;5071257;28;20273;-66
2022/01/23 15:07:13;;;;;;;8.57;5.30;;;9.30;1.00;;;;;;5071315;28;20220;-66
2022/01/23 15:09:40;;;;;;;9.63;5.40;;;9.40;99.90;;;;;;5072677;28;20258;-65
2022/01/23 15:12:08;;;;;;;7.83;5.40;;;9.50;99.90;;;;;;5075323;28;20224;-67
2022/01/23 15:14:35;;;;;;;11.30;7.27;;;9.60;99.90;;;;;;5075153;28;20212;-65
2022/01/23 15:17:02;;;;;;;13.60;8.67;;;9.70;99.90;;;;;;5075050;28;20208;-66
2022/01/23 15:19:28;;;;;;;11.20;7.13;;;9.60;1.00;;;;;;5075128;28;20208;-66
2022/01/23 15:21:55;;;;;;;13.37;7.90;;;9.60;99.90;;;;;;5075343;28;20239;-64
2022/01/23 15:24:23;;;;;;;15.33;9.03;;;9.50;6.80;;;;;;5075182;28;20209;-65
2022/01/23 15:26:50;;;;;;;17.67;9.80;;;9.40;1.00;;;;;;5074966;28;20205;-65
2022/01/23 15:29:17;;;;;;;20.03;10.70;;;9.30;1.00;;;;;;5075396;28;20213;-63
2022/01/23 15:31:43;;;;;;;20.63;11.07;;;9.30;99.90;;;;;;5074757;28;20229;-64
2022/01/23 15:34:10;;;;;;;18.83;10.90;;;9.20;99.90;;;;;;5075751;28;20557;-64
2022/01/23 15:36:37;;;;;;;19.70;10.20;;;9.20;99.90;;;;;;5075684;28;20582;-64